createdAt,value
2022-12-26T00:00:24.519Z,25.61
2022-12-26T00:01:24.470Z,25.57
2022-12-26T00:02:24.512Z,25.57
2022-12-26T00:03:24.879Z,25.55
2022-12-26T00:04:52.253Z,25.55
2022-12-26T00:05:24.455Z,25.55
2022-12-26T00:06:24.383Z,25.57
2022-12-26T00:07:24.443Z,25.57
2022-12-26T00:08:24.420Z,25.57
2022-12-26T00:09:24.453Z,25.54
2022-12-26T00:10:24.367Z,25.54
2022-12-26T00:11:24.367Z,25.54
2022-12-26T00:12:24.323Z,25.55
2022-12-26T00:13:38.543Z,25.55
2022-12-26T00:14:24.329Z,25.54
2022-12-26T00:15:24.402Z,25.57
2022-12-26T00:16:24.411Z,25.52
2022-12-26T00:17:24.245Z,25.54
2022-12-26T00:18:30.293Z,25.57
2022-12-26T00:19:24.243Z,25.52
2022-12-26T00:20:24.237Z,25.54
2022-12-26T00:21:24.221Z,25.54
2022-12-26T00:22:24.248Z,25.51
2022-12-26T00:23:24.235Z,25.54
2022-12-26T00:24:24.219Z,25.52
2022-12-26T00:25:24.239Z,25.54
2022-12-26T00:26:24.182Z,25.54
2022-12-26T00:27:24.159Z,25.55
2022-12-26T00:28:24.235Z,25.54
2022-12-26T00:29:24.144Z,25.52
2022-12-26T00:30:24.145Z,25.55
2022-12-26T00:31:24.240Z,25.54
2022-12-26T00:32:24.120Z,25.54
2022-12-26T00:33:24.075Z,25.52
2022-12-26T00:34:24.126Z,25.51
2022-12-26T00:35:24.116Z,25.52
2022-12-26T00:36:24.093Z,25.54
2022-12-26T00:37:24.065Z,25.55
2022-12-26T00:38:24.146Z,25.54
2022-12-26T00:39:24.052Z,25.55
2022-12-26T00:40:24.031Z,25.52
2022-12-26T00:41:24.003Z,25.55
2022-12-26T00:42:24.297Z,25.54
2022-12-26T00:43:23.988Z,25.52
2022-12-26T00:44:24.028Z,25.52
2022-12-26T00:45:23.949Z,25.51
2022-12-26T00:46:24.048Z,25.55
2022-12-26T00:47:23.921Z,25.54
2022-12-26T00:48:24.013Z,25.51
2022-12-26T00:49:23.952Z,25.52
2022-12-26T00:50:25.449Z,25.52
2022-12-26T00:51:23.925Z,25.51
2022-12-26T00:52:23.910Z,25.51
2022-12-26T00:53:23.968Z,25.51
2022-12-26T00:54:23.895Z,25.54
2022-12-26T00:55:23.831Z,25.51
2022-12-26T00:56:23.956Z,25.52
2022-12-26T00:57:23.882Z,25.55
2022-12-26T00:58:23.853Z,25.54
2022-12-26T00:59:24.073Z,25.52
2022-12-26T01:00:23.853Z,25.52
2022-12-26T01:01:24.067Z,25.52
2022-12-26T01:02:23.914Z,25.51
2022-12-26T01:03:23.843Z,25.51
2022-12-26T01:04:23.793Z,25.51
2022-12-26T01:05:23.869Z,25.50
2022-12-26T01:06:23.770Z,25.51
2022-12-26T01:07:23.735Z,25.52
2022-12-26T01:08:25.018Z,25.54
2022-12-26T01:09:24.324Z,25.52
2022-12-26T01:10:23.713Z,25.52
2022-12-26T01:11:23.689Z,25.47
2022-12-26T01:12:23.690Z,25.51
2022-12-26T01:13:23.668Z,25.50
2022-12-26T01:14:23.713Z,25.50
2022-12-26T01:15:23.618Z,25.50
2022-12-26T01:16:23.722Z,25.51
2022-12-26T01:17:23.618Z,25.47
2022-12-26T01:18:23.622Z,25.46
2022-12-26T01:19:23.602Z,25.47
2022-12-26T01:20:23.614Z,25.47
2022-12-26T01:21:23.615Z,25.50
2022-12-26T01:22:23.596Z,25.50
2022-12-26T01:23:23.575Z,25.47
2022-12-26T01:24:23.648Z,25.51
2022-12-26T01:25:23.660Z,25.50
2022-12-26T01:26:23.588Z,25.51
2022-12-26T01:27:23.536Z,25.50
2022-12-26T01:28:23.522Z,25.47
2022-12-26T01:29:23.464Z,25.50
2022-12-26T01:30:23.523Z,25.51
2022-12-26T01:31:23.538Z,25.47
2022-12-26T01:32:23.476Z,25.50
2022-12-26T01:33:23.466Z,25.50
2022-12-26T01:34:23.469Z,25.50
2022-12-26T01:35:23.488Z,25.47
2022-12-26T01:36:23.448Z,25.51
2022-12-26T01:37:23.436Z,25.50
2022-12-26T01:38:23.450Z,25.51
2022-12-26T01:39:23.486Z,25.50
2022-12-26T01:40:23.391Z,25.47
2022-12-26T01:41:23.384Z,25.51
2022-12-26T01:42:23.426Z,25.51
2022-12-26T01:43:23.310Z,25.50
2022-12-26T01:44:23.368Z,25.50
2022-12-26T01:45:23.332Z,25.51
2022-12-26T01:46:23.402Z,25.51
2022-12-26T01:47:23.271Z,25.50
2022-12-26T01:48:23.320Z,25.50
2022-12-26T01:49:23.330Z,25.50
2022-12-26T01:50:23.394Z,25.51
2022-12-26T01:51:23.389Z,25.52
2022-12-26T01:52:23.251Z,25.50
2022-12-26T01:53:23.204Z,25.50
2022-12-26T01:54:38.251Z,25.50
2022-12-26T01:55:23.201Z,25.50
2022-12-26T01:56:23.227Z,25.50
2022-12-26T01:57:23.191Z,25.50
2022-12-26T01:58:23.185Z,25.50
2022-12-26T01:59:23.219Z,25.50
2022-12-26T02:00:23.164Z,25.50
2022-12-26T02:01:23.271Z,25.47
2022-12-26T02:02:23.920Z,25.50
2022-12-26T02:03:23.175Z,25.46
2022-12-26T02:04:23.119Z,25.47
2022-12-26T02:05:23.088Z,25.47
2022-12-26T02:06:23.145Z,25.46
2022-12-26T02:07:23.078Z,25.47
2022-12-26T02:08:23.099Z,25.46
2022-12-26T02:09:23.089Z,25.50
2022-12-26T02:10:23.077Z,25.47
2022-12-26T02:11:23.047Z,25.50
2022-12-26T02:12:36.185Z,25.50
2022-12-26T02:13:23.058Z,25.47
2022-12-26T02:14:23.040Z,25.47
2022-12-26T02:15:23.117Z,25.47
2022-12-26T02:16:23.025Z,25.45
2022-12-26T02:17:22.969Z,25.45
2022-12-26T02:18:23.041Z,25.45
2022-12-26T02:19:22.985Z,25.46
2022-12-26T02:20:23.003Z,25.46
2022-12-26T02:21:22.908Z,25.43
2022-12-26T02:22:22.967Z,25.45
2022-12-26T02:23:22.931Z,25.45
2022-12-26T02:24:22.930Z,25.46
2022-12-26T02:25:22.937Z,25.46
2022-12-26T02:26:22.884Z,25.46
2022-12-26T02:27:22.953Z,25.45
2022-12-26T02:28:22.868Z,25.45
2022-12-26T02:29:22.886Z,25.43
2022-12-26T02:30:22.867Z,25.45
2022-12-26T02:31:22.838Z,25.42
2022-12-26T02:32:22.878Z,25.47
2022-12-26T02:33:22.854Z,25.45
2022-12-26T02:34:22.800Z,25.45
2022-12-26T02:35:22.858Z,25.45
2022-12-26T02:36:22.804Z,25.43
2022-12-26T02:37:22.760Z,25.46
2022-12-26T02:38:22.778Z,25.45
2022-12-26T02:39:43.325Z,25.43
2022-12-26T02:40:22.736Z,25.45
2022-12-26T02:41:22.715Z,25.43
2022-12-26T02:42:23.053Z,25.45
2022-12-26T02:43:22.675Z,25.45
2022-12-26T02:44:22.710Z,25.46
2022-12-26T02:45:22.669Z,25.43
2022-12-26T02:46:23.003Z,25.43
2022-12-26T02:47:22.714Z,25.43
2022-12-26T02:48:22.667Z,25.43
2022-12-26T02:49:22.648Z,25.45
2022-12-26T02:50:22.643Z,25.43
2022-12-26T02:51:22.611Z,25.43
2022-12-26T02:52:22.604Z,25.45
2022-12-26T02:53:22.555Z,25.45
2022-12-26T02:54:22.696Z,25.43
2022-12-26T02:55:22.619Z,25.40
2022-12-26T02:56:22.751Z,25.42
2022-12-26T02:57:22.541Z,25.45
2022-12-26T02:58:22.537Z,25.43
2022-12-26T02:59:55.028Z,25.42
2022-12-26T03:00:22.528Z,25.42
2022-12-26T03:01:23.094Z,25.45
2022-12-26T03:02:22.814Z,25.43
2022-12-26T03:03:22.552Z,25.42
2022-12-26T03:04:22.584Z,25.42
2022-12-26T03:05:22.470Z,25.43
2022-12-26T03:06:22.452Z,25.43
2022-12-26T03:07:22.425Z,25.45
2022-12-26T03:08:22.454Z,25.43
2022-12-26T03:09:22.447Z,25.43
2022-12-26T03:10:22.415Z,25.43
2022-12-26T03:11:22.444Z,25.42
2022-12-26T03:12:22.383Z,25.42
2022-12-26T03:13:22.434Z,25.43
2022-12-26T03:14:22.488Z,25.46
2022-12-26T03:15:22.403Z,25.43
2022-12-26T03:16:22.716Z,25.46
2022-12-26T03:17:22.432Z,25.43
2022-12-26T03:18:58.151Z,25.43
2022-12-26T03:19:22.403Z,25.42
2022-12-26T03:20:22.323Z,25.46
2022-12-26T03:21:22.289Z,25.43
2022-12-26T03:22:22.346Z,25.46
2022-12-26T03:23:22.261Z,25.45
2022-12-26T03:24:22.325Z,25.43
2022-12-26T03:25:22.252Z,25.46
2022-12-26T03:26:22.286Z,25.45
2022-12-26T03:27:22.308Z,25.46
2022-12-26T03:28:22.215Z,25.43
2022-12-26T03:29:22.359Z,25.42
2022-12-26T03:30:22.207Z,25.45
2022-12-26T03:31:22.430Z,25.43
2022-12-26T03:32:22.211Z,25.46
2022-12-26T03:33:22.231Z,25.42
2022-12-26T03:34:22.148Z,25.45
2022-12-26T03:35:22.129Z,25.43
2022-12-26T03:36:22.122Z,25.46
2022-12-26T03:37:22.086Z,25.43
2022-12-26T03:38:22.143Z,25.43
2022-12-26T03:39:22.080Z,25.42
2022-12-26T03:40:22.076Z,25.43
2022-12-26T03:41:22.042Z,25.46
2022-12-26T03:42:22.083Z,25.42
2022-12-26T03:43:22.011Z,25.42
2022-12-26T03:44:22.081Z,25.43
2022-12-26T03:45:22.057Z,25.45
2022-12-26T03:46:22.087Z,25.42
2022-12-26T03:47:22.014Z,25.43
2022-12-26T03:48:21.985Z,25.43
2022-12-26T03:49:21.959Z,25.43
2022-12-26T03:50:22.068Z,25.42
2022-12-26T03:51:21.927Z,25.43
2022-12-26T03:52:21.978Z,25.43
2022-12-26T03:53:21.930Z,25.42
2022-12-26T03:54:22.052Z,25.42
2022-12-26T03:55:21.902Z,25.42
2022-12-26T03:56:21.990Z,25.42
2022-12-26T03:57:22.023Z,25.42
2022-12-26T03:58:21.902Z,25.42
2022-12-26T03:59:21.968Z,25.43
2022-12-26T04:00:21.874Z,25.43
2022-12-26T04:01:21.990Z,25.43
2022-12-26T04:02:21.982Z,25.45
2022-12-26T04:03:21.917Z,25.42
2022-12-26T04:04:21.842Z,25.42
2022-12-26T04:05:21.852Z,25.43
2022-12-26T04:06:21.793Z,25.42
2022-12-26T04:07:21.788Z,25.42
2022-12-26T04:08:21.769Z,25.43
2022-12-26T04:09:21.792Z,25.40
2022-12-26T04:10:21.784Z,25.43
2022-12-26T04:11:21.751Z,25.40
2022-12-26T04:12:21.796Z,25.42
2022-12-26T04:13:21.877Z,25.45
2022-12-26T04:14:21.736Z,25.42
2022-12-26T04:15:21.674Z,25.43
2022-12-26T04:16:21.877Z,25.43
2022-12-26T04:17:21.673Z,25.43
2022-12-26T04:18:21.670Z,25.42
2022-12-26T04:19:21.663Z,25.40
2022-12-26T04:20:21.634Z,25.45
2022-12-26T04:21:21.616Z,25.38
2022-12-26T04:22:21.660Z,25.42
2022-12-26T04:23:21.576Z,25.43
2022-12-26T04:24:21.671Z,25.40
2022-12-26T04:25:21.616Z,25.42
2022-12-26T04:26:21.645Z,25.45
2022-12-26T04:27:21.608Z,25.43
2022-12-26T04:28:21.580Z,25.40
2022-12-26T04:29:21.589Z,25.42
2022-12-26T04:30:21.515Z,25.43
2022-12-26T04:31:21.753Z,25.40
2022-12-26T04:32:21.501Z,25.39
2022-12-26T04:33:21.501Z,25.43
2022-12-26T04:34:21.513Z,25.42
2022-12-26T04:35:21.559Z,25.42
2022-12-26T04:36:21.463Z,25.40
2022-12-26T04:37:21.478Z,25.43
2022-12-26T04:38:21.430Z,25.40
2022-12-26T04:39:21.475Z,25.42
2022-12-26T04:40:21.535Z,25.42
2022-12-26T04:41:21.627Z,25.43
2022-12-26T04:42:21.409Z,25.43
2022-12-26T04:43:50.009Z,25.42
2022-12-26T04:44:21.356Z,25.45
2022-12-26T04:45:21.376Z,25.40
2022-12-26T04:46:21.410Z,25.42
2022-12-26T04:47:21.368Z,25.45
2022-12-26T04:48:22.276Z,25.40
2022-12-26T04:49:21.349Z,25.40
2022-12-26T04:50:21.398Z,25.42
2022-12-26T04:51:21.452Z,25.40
2022-12-26T04:52:21.319Z,25.43
2022-12-26T04:53:21.279Z,25.42
2022-12-26T04:54:21.328Z,25.39
2022-12-26T04:55:21.337Z,25.42
2022-12-26T04:56:21.790Z,25.42
2022-12-26T04:57:21.312Z,25.42
2022-12-26T04:58:21.365Z,25.40
2022-12-26T04:59:21.361Z,25.42
2022-12-26T05:00:21.329Z,25.40
2022-12-26T05:01:21.353Z,25.43
2022-12-26T05:02:21.317Z,25.42
2022-12-26T05:03:21.260Z,25.40
2022-12-26T05:04:21.143Z,25.42
2022-12-26T05:05:21.161Z,25.40
2022-12-26T05:06:21.357Z,25.39
2022-12-26T05:07:21.143Z,25.39
2022-12-26T05:08:21.183Z,25.42
2022-12-26T05:09:21.185Z,25.42
2022-12-26T05:10:21.615Z,25.39
2022-12-26T05:11:21.126Z,25.40
2022-12-26T05:12:21.053Z,25.39
2022-12-26T05:13:21.061Z,25.42
2022-12-26T05:14:21.095Z,25.40
2022-12-26T05:15:21.067Z,25.42
2022-12-26T05:16:21.136Z,25.40
2022-12-26T05:17:21.152Z,25.39
2022-12-26T05:18:21.032Z,25.40
2022-12-26T05:19:21.033Z,25.40
2022-12-26T05:20:20.985Z,25.38
2022-12-26T05:21:21.007Z,25.38
2022-12-26T05:22:20.954Z,25.39
2022-12-26T05:23:21.013Z,25.42
2022-12-26T05:24:20.979Z,25.39
2022-12-26T05:25:20.938Z,25.40
2022-12-26T05:26:20.996Z,25.40
2022-12-26T05:27:20.910Z,25.39
2022-12-26T05:28:20.928Z,25.39
2022-12-26T05:29:21.009Z,25.40
2022-12-26T05:30:20.857Z,25.39
2022-12-26T05:31:21.011Z,25.38
2022-12-26T05:32:20.831Z,25.40
2022-12-26T05:33:20.857Z,25.39
2022-12-26T05:34:20.840Z,25.40
2022-12-26T05:35:20.844Z,25.39
2022-12-26T05:36:20.819Z,25.42
2022-12-26T05:37:20.831Z,25.39
2022-12-26T05:38:20.829Z,25.40
2022-12-26T05:39:20.837Z,25.39
2022-12-26T05:40:20.742Z,25.39
2022-12-26T05:41:20.757Z,25.39
2022-12-26T05:42:20.747Z,25.42
2022-12-26T05:43:20.824Z,25.39
2022-12-26T05:44:20.744Z,25.40
2022-12-26T05:45:20.746Z,25.40
2022-12-26T05:46:20.884Z,25.42
2022-12-26T05:47:20.718Z,25.39
2022-12-26T05:48:20.683Z,25.39
2022-12-26T05:49:20.703Z,25.38
2022-12-26T05:50:20.650Z,25.42
2022-12-26T05:51:20.682Z,25.40
2022-12-26T05:52:20.615Z,25.40
2022-12-26T05:53:20.629Z,25.40
2022-12-26T05:54:20.624Z,25.42
2022-12-26T05:55:20.833Z,25.40
2022-12-26T05:56:20.640Z,25.39
2022-12-26T05:57:20.715Z,25.36
2022-12-26T05:58:20.564Z,25.40
2022-12-26T05:59:20.755Z,25.42
2022-12-26T06:00:20.653Z,25.39
2022-12-26T06:01:20.628Z,25.39
2022-12-26T06:02:20.674Z,25.39
2022-12-26T06:03:20.689Z,25.39
2022-12-26T06:04:20.481Z,25.39
2022-12-26T06:05:20.501Z,25.40
2022-12-26T06:06:20.512Z,25.42
2022-12-26T06:07:20.479Z,25.39
2022-12-26T06:08:20.479Z,25.40
2022-12-26T06:09:20.467Z,25.39
2022-12-26T06:10:20.423Z,25.42
2022-12-26T06:11:20.735Z,25.39
2022-12-26T06:12:21.418Z,25.38
2022-12-26T06:13:20.431Z,25.39
2022-12-26T06:14:20.448Z,25.42
2022-12-26T06:15:20.390Z,25.42
2022-12-26T06:16:20.511Z,25.38
2022-12-26T06:17:20.395Z,25.40
2022-12-26T06:18:20.653Z,25.39
2022-12-26T06:19:26.440Z,25.39
2022-12-26T06:20:20.347Z,25.36
2022-12-26T06:21:20.455Z,25.38
2022-12-26T06:22:20.285Z,25.39
2022-12-26T06:23:20.340Z,25.38
2022-12-26T06:24:20.295Z,25.38
2022-12-26T06:25:20.457Z,25.40
2022-12-26T06:26:20.299Z,25.38
2022-12-26T06:27:20.310Z,25.38
2022-12-26T06:28:20.222Z,25.40
2022-12-26T06:29:20.285Z,25.36
2022-12-26T06:30:20.208Z,25.35
2022-12-26T06:31:20.278Z,25.36
2022-12-26T06:32:20.237Z,25.36
2022-12-26T06:33:20.199Z,25.38
2022-12-26T06:34:20.204Z,25.36
2022-12-26T06:35:20.234Z,25.40
2022-12-26T06:36:20.156Z,25.36
2022-12-26T06:37:20.186Z,25.38
2022-12-26T06:38:20.169Z,25.36
2022-12-26T06:39:20.150Z,25.36
2022-12-26T06:40:20.158Z,25.36
2022-12-26T06:41:20.475Z,25.33
2022-12-26T06:42:20.092Z,25.36
2022-12-26T06:43:20.113Z,25.36
2022-12-26T06:44:20.063Z,25.38
2022-12-26T06:45:20.098Z,25.36
2022-12-26T06:46:20.084Z,25.36
2022-12-26T06:47:20.118Z,25.35
2022-12-26T06:48:20.041Z,25.36
2022-12-26T06:49:20.416Z,25.33
2022-12-26T06:50:19.988Z,25.33
2022-12-26T06:51:20.294Z,25.38
2022-12-26T06:52:20.098Z,25.36
2022-12-26T06:53:19.985Z,25.36
2022-12-26T06:54:20.525Z,25.36
2022-12-26T06:55:19.985Z,25.35
2022-12-26T06:56:19.919Z,25.35
2022-12-26T06:57:20.171Z,25.35
2022-12-26T06:58:19.907Z,25.39
2022-12-26T06:59:19.961Z,25.40
2022-12-26T07:00:20.870Z,25.38
2022-12-26T07:01:20.027Z,25.38
2022-12-26T07:02:20.030Z,25.36
2022-12-26T07:03:19.916Z,25.38
2022-12-26T07:04:19.832Z,25.38
2022-12-26T07:05:20.442Z,25.38
2022-12-26T07:06:19.844Z,25.36
2022-12-26T07:07:19.947Z,25.36
2022-12-26T07:08:19.891Z,25.39
2022-12-26T07:09:19.840Z,25.36
2022-12-26T07:10:19.765Z,25.36
2022-12-26T07:11:19.963Z,25.36
2022-12-26T07:12:19.779Z,25.39
2022-12-26T07:13:19.793Z,25.38
2022-12-26T07:14:19.752Z,25.36
2022-12-26T07:15:19.771Z,25.36
2022-12-26T07:16:19.828Z,25.38
2022-12-26T07:17:19.749Z,25.39
2022-12-26T07:18:20.245Z,25.36
2022-12-26T07:19:19.873Z,25.38
2022-12-26T07:20:20.648Z,25.40
2022-12-26T07:21:19.728Z,25.38
2022-12-26T07:22:19.983Z,25.35
2022-12-26T07:23:19.662Z,25.39
2022-12-26T07:24:19.669Z,25.39
2022-12-26T07:25:19.688Z,25.36
2022-12-26T07:26:19.605Z,25.36
2022-12-26T07:27:19.653Z,25.38
2022-12-26T07:28:19.570Z,25.38
2022-12-26T07:29:19.761Z,25.39
2022-12-26T07:30:19.753Z,25.38
2022-12-26T07:31:19.646Z,25.38
2022-12-26T07:32:19.609Z,25.38
2022-12-26T07:33:19.546Z,25.38
2022-12-26T07:34:20.269Z,25.36
2022-12-26T07:35:19.552Z,25.40
2022-12-26T07:36:19.532Z,25.39
2022-12-26T07:37:19.598Z,25.36
2022-12-26T07:38:19.465Z,25.39
2022-12-26T07:39:19.493Z,25.40
2022-12-26T07:40:19.587Z,25.40
2022-12-26T07:41:19.481Z,25.35
2022-12-26T07:42:19.553Z,25.39
2022-12-26T07:43:19.595Z,25.38
2022-12-26T07:44:19.426Z,25.39
2022-12-26T07:45:19.734Z,25.36
2022-12-26T07:46:19.668Z,25.42
2022-12-26T07:47:19.735Z,25.39
2022-12-26T07:48:19.585Z,25.36
2022-12-26T07:49:20.006Z,25.36
2022-12-26T07:50:19.357Z,25.38
2022-12-26T07:51:19.408Z,25.39
2022-12-26T07:52:19.417Z,25.39
2022-12-26T07:53:19.354Z,25.39
2022-12-26T07:54:20.286Z,25.39
2022-12-26T07:55:19.408Z,25.38
2022-12-26T07:56:19.601Z,25.39
2022-12-26T07:57:47.457Z,25.38
2022-12-26T07:58:19.266Z,25.39
2022-12-26T07:59:19.530Z,25.40
2022-12-26T08:00:19.329Z,25.40
2022-12-26T08:01:19.475Z,25.38
2022-12-26T08:02:19.475Z,25.39
2022-12-26T08:03:20.502Z,25.38
2022-12-26T08:04:19.192Z,25.40
2022-12-26T08:05:19.241Z,25.39
2022-12-26T08:06:19.185Z,25.39
2022-12-26T08:07:19.338Z,25.42
2022-12-26T08:08:19.190Z,25.43
2022-12-26T08:09:19.219Z,25.42
2022-12-26T08:10:19.121Z,25.40
2022-12-26T08:11:19.549Z,25.40
2022-12-26T08:12:19.274Z,25.40
2022-12-26T08:13:19.171Z,25.40
2022-12-26T08:14:19.111Z,25.40
2022-12-26T08:15:19.115Z,25.43
2022-12-26T08:16:19.079Z,25.40
2022-12-26T08:17:19.355Z,25.43
2022-12-26T08:18:19.127Z,25.42
2022-12-26T08:19:19.364Z,25.43
2022-12-26T08:20:19.107Z,25.40
2022-12-26T08:21:19.074Z,25.42
2022-12-26T08:22:19.141Z,25.42
2022-12-26T08:23:19.189Z,25.42
2022-12-26T08:24:19.246Z,25.40
2022-12-26T08:25:22.028Z,25.40
2022-12-26T08:26:19.537Z,25.39
2022-12-26T08:27:19.113Z,25.39
2022-12-26T08:28:18.940Z,25.39
2022-12-26T08:29:19.667Z,25.42
2022-12-26T08:30:19.052Z,25.38
2022-12-26T08:31:18.981Z,25.39
2022-12-26T08:32:18.907Z,25.39
2022-12-26T08:33:18.893Z,25.40
2022-12-26T08:34:18.947Z,25.38
2022-12-26T08:35:18.944Z,25.40
2022-12-26T08:36:18.840Z,25.40
2022-12-26T08:37:18.911Z,25.39
2022-12-26T08:38:18.809Z,25.39
2022-12-26T08:39:18.856Z,25.38
2022-12-26T08:40:41.451Z,25.40
2022-12-26T08:41:18.818Z,25.39
2022-12-26T08:42:19.127Z,25.39
2022-12-26T08:43:34.892Z,25.36
2022-12-26T08:44:27.560Z,25.38
2022-12-26T08:45:18.824Z,25.40
2022-12-26T08:46:18.896Z,25.39
2022-12-26T08:47:18.881Z,25.40
2022-12-26T08:48:18.732Z,25.39
2022-12-26T08:49:19.682Z,25.39
2022-12-26T08:50:19.248Z,25.42
2022-12-26T08:51:18.671Z,25.40
2022-12-26T08:52:18.760Z,25.40
2022-12-26T08:53:18.723Z,25.42
2022-12-26T08:54:18.737Z,25.43
2022-12-26T08:55:18.662Z,25.40
2022-12-26T08:56:18.847Z,25.39
2022-12-26T08:57:18.609Z,25.40
2022-12-26T08:58:19.239Z,25.40
2022-12-26T08:59:18.729Z,25.43
2022-12-26T09:00:18.685Z,25.43
2022-12-26T09:01:18.723Z,25.40
2022-12-26T09:02:18.943Z,25.43
2022-12-26T09:03:18.577Z,25.40
2022-12-26T09:04:18.715Z,25.43
2022-12-26T09:05:18.540Z,25.42
2022-12-26T09:06:18.560Z,25.43
2022-12-26T09:07:18.585Z,25.42
2022-12-26T09:08:18.522Z,25.43
2022-12-26T09:09:18.567Z,25.43
2022-12-26T09:10:19.172Z,25.42
2022-12-26T09:11:18.955Z,25.39
2022-12-26T09:12:18.595Z,25.43
2022-12-26T09:13:18.459Z,25.42
2022-12-26T09:14:18.459Z,25.43
2022-12-26T09:15:18.513Z,25.46
2022-12-26T09:16:18.507Z,25.43
2022-12-26T09:17:18.677Z,25.43
2022-12-26T09:18:18.445Z,25.43
2022-12-26T09:19:18.667Z,25.47
2022-12-26T09:20:18.386Z,25.45
2022-12-26T09:21:18.519Z,25.42
2022-12-26T09:22:18.460Z,25.45
2022-12-26T09:23:18.414Z,25.45
2022-12-26T09:24:18.378Z,25.45
2022-12-26T09:25:18.314Z,25.43
2022-12-26T09:26:18.357Z,25.47
2022-12-26T09:27:18.836Z,25.45
2022-12-26T09:28:18.334Z,25.46
2022-12-26T09:29:19.341Z,25.47
2022-12-26T09:30:18.312Z,25.47
2022-12-26T09:31:18.459Z,25.45
2022-12-26T09:32:18.490Z,25.50
2022-12-26T09:33:18.329Z,25.46
2022-12-26T09:34:18.402Z,25.46
2022-12-26T09:35:18.240Z,25.47
2022-12-26T09:36:18.243Z,25.50
2022-12-26T09:37:18.282Z,25.52
2022-12-26T09:38:18.225Z,25.51
2022-12-26T09:39:18.232Z,25.52
2022-12-26T09:40:18.169Z,25.52
2022-12-26T09:41:18.183Z,25.52
2022-12-26T09:42:18.805Z,25.54
2022-12-26T09:43:18.506Z,25.52
2022-12-26T09:44:18.193Z,25.50
2022-12-26T09:45:18.321Z,25.52
2022-12-26T09:46:18.221Z,25.50
2022-12-26T09:47:18.166Z,25.47
2022-12-26T09:48:18.082Z,25.51
2022-12-26T09:49:18.506Z,25.50
2022-12-26T09:50:19.694Z,25.51
2022-12-26T09:51:18.041Z,25.51
2022-12-26T09:52:19.338Z,25.52
2022-12-26T09:53:18.104Z,25.51
2022-12-26T09:54:19.083Z,25.50
2022-12-26T09:55:18.568Z,25.51
2022-12-26T09:57:01.158Z,25.54
2022-12-26T09:57:18.004Z,25.52
2022-12-26T09:58:18.274Z,25.52
2022-12-26T09:59:18.050Z,25.54
2022-12-26T10:00:18.023Z,25.54
2022-12-26T10:01:18.113Z,25.51
2022-12-26T10:02:19.103Z,25.52
2022-12-26T10:03:17.910Z,25.54
2022-12-26T10:04:21.258Z,25.52
2022-12-26T10:05:18.190Z,25.54
2022-12-26T10:06:18.152Z,25.51
2022-12-26T10:07:17.946Z,25.51
2022-12-26T10:08:17.952Z,25.55
2022-12-26T10:09:17.901Z,25.54
2022-12-26T10:10:18.798Z,25.54
2022-12-26T10:11:18.050Z,25.51
2022-12-26T10:12:18.161Z,25.54
2022-12-26T10:13:18.027Z,25.54
2022-12-26T10:14:21.620Z,25.54
2022-12-26T10:15:17.977Z,25.51
2022-12-26T10:16:17.941Z,25.51
2022-12-26T10:17:17.985Z,25.55
2022-12-26T10:18:18.977Z,25.52
2022-12-26T10:19:17.816Z,25.54
2022-12-26T10:20:18.702Z,25.54
2022-12-26T10:21:17.810Z,25.54
2022-12-26T10:22:17.779Z,25.51
2022-12-26T10:23:17.955Z,25.51
2022-12-26T10:24:18.137Z,25.52
2022-12-26T10:25:17.827Z,25.54
2022-12-26T10:26:17.727Z,25.52
2022-12-26T10:27:18.594Z,25.52
2022-12-26T10:28:17.883Z,25.51
2022-12-26T10:29:18.613Z,25.50
2022-12-26T10:30:17.782Z,25.50
2022-12-26T10:31:17.690Z,25.50
2022-12-26T10:32:21.724Z,25.47
2022-12-26T10:33:17.970Z,25.45
2022-12-26T10:34:17.855Z,25.43
2022-12-26T10:35:17.959Z,25.43
2022-12-26T10:36:17.947Z,25.45
2022-12-26T10:37:17.623Z,25.45
2022-12-26T10:38:20.410Z,25.50
2022-12-26T10:39:17.545Z,25.52
2022-12-26T10:40:17.559Z,25.52
2022-12-26T10:41:17.802Z,25.52
2022-12-26T10:42:17.523Z,25.55
2022-12-26T10:43:17.719Z,25.54
2022-12-26T10:44:19.406Z,25.57
2022-12-26T10:45:17.453Z,25.60
2022-12-26T10:46:17.995Z,25.60
2022-12-26T10:47:17.570Z,25.61
2022-12-26T10:48:18.002Z,25.60
2022-12-26T10:49:17.508Z,25.64
2022-12-26T10:50:20.307Z,25.62
2022-12-26T10:51:18.413Z,25.62
2022-12-26T10:52:17.461Z,25.64
2022-12-26T10:53:17.643Z,25.65
2022-12-26T10:54:17.708Z,25.61
2022-12-26T10:55:29.471Z,25.62
2022-12-26T10:56:18.512Z,25.62
2022-12-26T10:57:17.776Z,25.62
2022-12-26T10:58:17.340Z,25.61
2022-12-26T10:59:17.337Z,25.58
2022-12-26T11:00:17.436Z,25.62
2022-12-26T11:01:17.343Z,25.57
2022-12-26T11:02:17.625Z,25.57
2022-12-26T11:03:19.559Z,25.55
2022-12-26T11:04:31.149Z,25.58
2022-12-26T11:06:17.463Z,25.58
2022-12-26T11:07:17.237Z,25.58
2022-12-26T11:08:17.236Z,25.57
2022-12-26T11:09:17.445Z,25.55
2022-12-26T11:10:17.379Z,25.54
2022-12-26T11:11:17.267Z,25.52
2022-12-26T11:12:17.531Z,25.55
2022-12-26T11:13:18.274Z,25.57
2022-12-26T11:14:17.274Z,25.55
2022-12-26T11:15:17.226Z,25.57
2022-12-26T11:16:17.427Z,25.55
2022-12-26T11:17:17.908Z,25.55
2022-12-26T11:18:18.782Z,25.55
2022-12-26T11:19:17.135Z,25.57
2022-12-26T11:20:17.523Z,25.58
2022-12-26T11:21:17.472Z,25.58
2022-12-26T11:22:18.183Z,25.55
2022-12-26T11:23:17.197Z,25.58
2022-12-26T11:24:17.101Z,25.57
2022-12-26T11:25:17.336Z,25.55
2022-12-26T11:26:17.070Z,25.54
2022-12-26T11:27:17.286Z,25.54
2022-12-26T11:28:17.815Z,25.52
2022-12-26T11:29:17.923Z,25.54
2022-12-26T11:30:17.684Z,25.47
2022-12-26T11:31:16.992Z,25.51
2022-12-26T11:32:17.166Z,25.52
2022-12-26T11:33:16.967Z,25.50
2022-12-26T11:34:16.972Z,25.51
2022-12-26T11:35:16.989Z,25.54
2022-12-26T11:36:17.941Z,25.52
2022-12-26T11:37:16.905Z,25.54
2022-12-26T11:38:17.012Z,25.54
2022-12-26T11:39:16.898Z,25.52
2022-12-26T11:40:16.952Z,25.54
2022-12-26T11:41:17.109Z,25.55
2022-12-26T11:42:16.872Z,25.51
2022-12-26T11:43:16.933Z,25.51
2022-12-26T11:44:16.883Z,25.50
2022-12-26T11:45:17.267Z,25.52
2022-12-26T11:46:16.889Z,25.50
2022-12-26T11:47:16.924Z,25.51
2022-12-26T11:48:16.856Z,25.51
2022-12-26T11:49:16.992Z,25.52
2022-12-26T11:50:16.897Z,25.52
2022-12-26T11:51:16.719Z,25.47
2022-12-26T11:52:16.827Z,25.52
2022-12-26T11:53:16.740Z,25.47
2022-12-26T11:54:16.807Z,25.50
2022-12-26T11:55:16.848Z,25.50
2022-12-26T11:56:16.726Z,25.51
2022-12-26T11:57:16.702Z,25.51
2022-12-26T11:58:16.705Z,25.50
2022-12-26T11:59:16.828Z,25.50
2022-12-26T12:00:16.965Z,25.50
2022-12-26T12:01:17.296Z,25.51
2022-12-26T12:02:16.710Z,25.47
2022-12-26T12:03:16.753Z,25.50
2022-12-26T12:04:16.663Z,25.51
2022-12-26T12:05:16.742Z,25.46
2022-12-26T12:06:16.796Z,25.46
2022-12-26T12:07:16.585Z,25.43
2022-12-26T12:08:16.727Z,25.43
2022-12-26T12:09:17.013Z,25.42
2022-12-26T12:10:16.593Z,25.43
2022-12-26T12:11:16.560Z,25.42
2022-12-26T12:12:17.355Z,25.43
2022-12-26T12:13:16.576Z,25.42
2022-12-26T12:14:16.557Z,25.42
2022-12-26T12:15:16.579Z,25.42
2022-12-26T12:16:16.608Z,25.42
2022-12-26T12:17:17.037Z,25.42
2022-12-26T12:18:16.485Z,25.42
2022-12-26T12:19:16.534Z,25.42
2022-12-26T12:20:16.548Z,25.40
2022-12-26T12:21:17.585Z,25.38
2022-12-26T12:22:16.669Z,25.39
2022-12-26T12:23:16.522Z,25.40
2022-12-26T12:24:16.435Z,25.39
2022-12-26T12:25:16.415Z,25.40
2022-12-26T12:26:16.541Z,25.40
2022-12-26T12:27:16.551Z,25.39
2022-12-26T12:28:16.360Z,25.36
2022-12-26T12:29:16.368Z,25.36
2022-12-26T12:30:22.437Z,25.38
2022-12-26T12:31:17.069Z,25.39
2022-12-26T12:32:16.342Z,25.39
2022-12-26T12:33:16.394Z,25.38
2022-12-26T12:34:16.290Z,25.35
2022-12-26T12:35:16.268Z,25.35
2022-12-26T12:36:16.363Z,25.36
2022-12-26T12:37:18.016Z,25.36
2022-12-26T12:38:16.343Z,25.35
2022-12-26T12:39:16.375Z,25.30
2022-12-26T12:40:16.400Z,25.33
2022-12-26T12:41:16.373Z,25.35
2022-12-26T12:42:16.334Z,25.35
2022-12-26T12:43:16.174Z,25.33
2022-12-26T12:44:16.202Z,25.35
2022-12-26T12:45:16.718Z,25.35
2022-12-26T12:46:16.429Z,25.33
2022-12-26T12:47:16.686Z,25.33
2022-12-26T12:48:16.258Z,25.35
2022-12-26T12:49:16.770Z,25.33
2022-12-26T12:50:17.180Z,25.33
2022-12-26T12:51:16.232Z,25.32
2022-12-26T12:52:16.272Z,25.35
2022-12-26T12:53:16.104Z,25.30